Time;durP1;ratioP1;P1;durP2;ratioP2;P2;SDS_P1;SDS_P2;PMS_P1;PMS_P2;Temp;Humidity;BMP_temperature;BMP_pressure;BME280_temperature;BME280_humidity;BME280_pressure;Samples;Min_cycle;Max_cycle;Signal;HPM_P1;HPM_P2
2022/02/13 00:02:06;;;;;;;37.75;20.23;;;;;;;2.29;92.78;94238.75;5070193;28;20166;-81
2022/02/13 00:04:33;;;;;;;43.47;23.02;;;;;;;2.19;92.58;94212.59;5070406;28;20040;-81
2022/02/13 00:07:00;;;;;;;37.08;19.48;;;;;;;2.44;92.21;94248.53;5070391;28;20086;-80
2022/02/13 00:09:28;;;;;;;42.38;19.58;;;;;;;2.43;91.65;94232.50;5070343;28;20114;-80
2022/02/13 00:11:55;;;;;;;34.22;19.55;;;;;;;2.55;91.04;94245.84;5070011;28;20051;-80
2022/02/13 00:14:23;;;;;;;34.67;19.77;;;;;;;2.56;90.62;94231.41;5069819;28;20381;-80
2022/02/13 00:16:51;;;;;;;32.15;17.75;;;;;;;2.61;90.53;94236.88;5070289;28;20040;-80
2022/02/13 00:19:18;;;;;;;35.75;19.80;;;;;;;2.62;91.16;94234.22;5070238;28;20069;-80
2022/02/13 00:21:45;;;;;;;32.92;18.67;;;;;;;2.73;90.52;94240.09;5069892;28;20373;-80
2022/02/13 00:24:12;;;;;;;31.42;17.40;;;;;;;2.71;90.04;94214.84;5069897;28;20109;-80
2022/02/13 00:26:39;;;;;;;32.15;16.05;;;;;;;2.85;90.38;94233.91;5069916;28;20131;-80
2022/02/13 00:29:07;;;;;;;41.58;20.35;;;;;;;2.87;89.75;94231.25;5070014;28;20059;-81
2022/02/13 00:31:35;;;;;;;35.13;16.95;;;;;;;2.89;89.82;94242.06;5069716;28;20917;-80
2022/02/13 00:34:02;;;;;;;30.73;17.38;;;;;;;2.86;90.49;94227.13;5069501;28;20055;-80
2022/02/13 00:36:29;;;;;;;41.97;21.35;;;;;;;2.97;90.27;94233.75;5069611;28;20040;-80
2022/02/13 00:38:56;;;;;;;31.08;16.75;;;;;;;3.00;90.69;94226.66;5069227;28;20412;-80
2022/02/13 00:41:23;;;;;;;27.73;15.05;;;;;;;3.04;91.28;94224.66;5069669;28;20105;-80
2022/02/13 00:43:49;;;;;;;34.00;14.95;;;;;;;3.06;90.91;94228.66;5069683;28;20044;-80
2022/02/13 00:46:16;;;;;;;31.48;14.95;;;;;;;3.11;90.95;94224.91;5069527;28;20102;-80
2022/02/13 00:48:44;;;;;;;31.17;13.27;;;;;;;3.13;90.74;94228.09;5069516;28;20101;-80
2022/02/13 00:51:11;;;;;;;33.08;13.90;;;;;;;3.11;90.60;94222.38;5069790;28;20044;-80
2022/02/13 00:53:38;;;;;;;36.20;14.20;;;;;;;3.12;89.87;94227.31;5069005;28;20045;-80
2022/02/13 00:56:05;;;;;;;31.52;14.73;;;;;;;3.10;90.22;94224.09;5069178;28;20041;-80
2022/02/13 00:58:35;;;;;;;38.40;17.75;;;;;;;2.80;91.61;94214.03;5069199;28;20040;-81
2022/02/13 01:01:02;;;;;;;38.85;17.58;;;;;;;2.59;92.70;94203.25;5069482;28;20040;-81
2022/02/13 01:03:29;;;;;;;38.78;19.35;;;;;;;2.58;92.97;94212.59;5069517;28;20044;-82
2022/02/13 01:05:57;;;;;;;37.78;17.63;;;;;;;2.69;92.91;94231.94;5069413;28;20403;-82
2022/02/13 01:08:24;;;;;;;39.22;14.60;;;;;;;2.57;92.69;94202.56;5069289;28;20068;-82
2022/02/13 01:10:51;;;;;;;34.28;15.50;;;;;;;2.83;92.32;94222.31;5069269;28;20041;-83
2022/02/13 01:13:18;;;;;;;42.60;17.75;;;;;;;2.88;92.04;94213.31;5069183;28;20036;-82
2022/02/13 01:15:45;;;;;;;40.17;16.25;;;;;;;2.88;92.48;94210.00;5069193;28;20110;-81
2022/02/13 01:18:12;;;;;;;32.90;14.75;;;;;;;2.96;92.10;94214.41;5069181;28;20060;-82
2022/02/13 01:20:39;;;;;;;32.95;14.95;;;;;;;2.99;92.03;94214.91;5069469;28;20434;-82
2022/02/13 01:23:08;;;;;;;35.10;14.95;;;;;;;3.03;91.96;94215.44;5069223;28;20373;-82
2022/02/13 01:25:35;;;;;;;31.38;12.95;;;;;;;3.04;92.47;94215.31;5068896;28;20063;-82
2022/02/13 01:28:03;;;;;;;28.73;14.10;;;;;;;2.88;91.72;94174.47;5068848;28;20047;-82
2022/02/13 01:30:30;;;;;;;32.20;15.00;;;;;;;3.11;92.37;94205.41;5068869;28;20500;-82
2022/02/13 01:32:56;;;;;;;33.15;14.57;;;;;;;3.10;92.34;94201.25;5068960;28;20040;-82
2022/02/13 01:35:24;;;;;;;28.35;13.02;;;;;;;2.82;92.00;94152.97;5069174;28;20051;-82
2022/02/13 01:37:50;;;;;;;28.52;13.43;;;;;;;3.13;92.11;94198.44;5069126;28;20396;-82
2022/02/13 01:40:19;;;;;;;28.70;13.02;;;;;;;2.87;91.89;94162.72;5069366;28;20477;-82
2022/02/13 01:42:46;;;;;;;34.17;15.63;;;;;;;3.12;91.75;94193.50;5069063;28;20064;-82
2022/02/13 01:45:13;;;;;;;34.20;14.82;;;;;;;3.05;92.81;94199.13;5069049;28;20098;-82
2022/02/13 01:47:41;;;;;;;32.55;15.75;;;;;;;3.01;93.05;94189.41;5069074;28;20059;-82
2022/02/13 01:50:09;;;;;;;32.25;17.33;;;;;;;3.07;93.02;94191.38;5071309;28;20415;-82
2022/02/13 01:52:36;;;;;;;35.17;17.08;;;;;;;3.00;91.90;94183.50;5072911;28;20040;-82
2022/02/13 01:55:04;;;;;;;35.97;17.00;;;;;;;3.09;92.67;94186.19;5072638;28;20052;-82
2022/02/13 01:57:32;;;;;;;37.53;17.75;;;;;;;2.94;92.83;94189.16;5072880;28;20102;-82
2022/02/13 01:59:59;;;;;;;33.17;16.50;;;;;;;2.91;92.76;94190.22;5072908;28;20047;-82
2022/02/13 02:02:26;;;;;;;39.83;17.23;;;;;;;2.88;92.77;94169.41;5073198;28;20036;-82
2022/02/13 02:04:53;;;;;;;35.95;16.77;;;;;;;2.86;93.47;94161.13;5072935;28;20056;-82
2022/02/13 02:07:20;;;;;;;39.67;18.00;;;;;;;3.04;92.78;94189.13;5072950;28;20049;-82
2022/02/13 02:09:48;;;;;;;35.80;17.67;;;;;;;3.02;91.91;94184.16;5073017;28;20041;-82
2022/02/13 02:12:14;;;;;;;35.83;17.05;;;;;;;3.05;92.42;94183.91;5073232;28;20041;-82
2022/02/13 02:14:43;;;;;;;35.83;16.27;;;;;;;2.98;92.61;94172.72;5072874;28;20056;-81
2022/02/13 02:17:10;;;;;;;34.50;16.08;;;;;;;3.00;92.95;94170.81;5072573;28;20102;-82
2022/02/13 02:19:37;;;;;;;40.92;17.40;;;;;;;3.03;93.53;94180.72;5072051;28;20043;-82
2022/02/13 02:22:06;;;;;;;38.00;17.65;;;;;;;2.97;93.37;94172.84;5072244;28;20046;-81
2022/02/13 02:24:35;;;;;;;38.25;18.65;;;;;;;2.91;92.11;94164.84;5072007;28;20040;-82
2022/02/13 02:27:03;;;;;;;41.00;17.02;;;;;;;3.14;92.60;94187.34;5071910;28;20045;-82
2022/02/13 02:29:30;;;;;;;40.00;17.88;;;;;;;3.16;92.88;94187.22;5071959;28;20052;-82
2022/02/13 02:31:57;;;;;;;36.80;16.90;;;;;;;3.19;93.37;94186.91;5072017;28;20055;-82
2022/02/13 02:34:24;;;;;;;31.77;16.05;;;;;;;3.02;93.85;94168.16;5072091;28;20529;-81
2022/02/13 02:36:51;;;;;;;34.95;16.27;;;;;;;3.20;93.68;94193.63;5071770;28;20040;-82
2022/02/13 02:39:18;;;;;;;29.85;14.57;;;;;;;3.18;93.80;94187.84;5072144;28;20049;-82
2022/02/13 02:41:46;;;;;;;26.80;13.40;;;;;;;3.16;94.73;94189.75;5071656;28;20051;-82
2022/02/13 02:44:14;;;;;;;34.65;14.82;;;;;;;3.19;94.71;94197.88;5072104;28;20036;-82
2022/02/13 02:46:40;;;;;;;36.60;14.68;;;;;;;3.16;95.69;94190.53;5072042;28;20040;-82
2022/02/13 02:49:07;;;;;;;35.42;16.80;;;;;;;3.18;95.77;94195.47;5071372;28;20044;-81
2022/02/13 02:51:34;;;;;;;39.25;17.50;;;;;;;3.10;96.10;94180.16;5071964;28;20040;-81
2022/02/13 02:54:01;;;;;;;33.75;16.48;;;;;;;3.17;95.28;94197.22;5071473;28;20060;-81
2022/02/13 02:56:28;;;;;;;33.95;16.88;;;;;;;3.17;95.35;94196.41;5071896;28;20041;-81
2022/02/13 02:58:56;;;;;;;33.88;16.23;;;;;;;3.15;96.72;94198.31;5071436;28;20036;-81
2022/02/13 03:01:23;;;;;;;33.72;17.23;;;;;;;3.05;96.75;94193.25;5070716;28;20090;-81
2022/02/13 03:03:50;;;;;;;36.25;18.02;;;;;;;3.06;96.96;94198.19;5071254;28;20483;-81
2022/02/13 03:06:17;;;;;;;38.30;18.25;;;;;;;2.88;97.60;94189.69;5071549;28;20178;-81
2022/02/13 03:08:43;;;;;;;39.53;19.52;;;;;;;2.86;98.30;94192.38;5070854;28;20048;-82
2022/02/13 03:11:11;;;;;;;33.03;18.67;;;;;;;2.68;98.52;94182.13;5071188;28;20048;-81
2022/02/13 03:13:38;;;;;;;35.58;18.45;;;;;;;2.85;98.01;94200.13;5071219;28;20508;-80
2022/02/13 03:16:06;;;;;;;38.35;17.80;;;;;;;2.88;98.62;94203.19;5071210;28;20447;-79
2022/02/13 03:18:33;;;;;;;34.75;17.73;;;;;;;2.94;98.68;94210.25;5071061;28;20049;-79
2022/02/13 03:21:00;;;;;;;26.63;15.38;;;;;;;2.89;99.53;94207.34;5071102;28;20051;-78
2022/02/13 03:23:27;;;;;;;30.08;17.55;;;;;;;2.81;100.00;94181.84;5070926;28;20488;-78
2022/02/13 03:25:54;;;;;;;28.48;15.60;;;;;;;2.99;100.00;94201.41;5071152;28;20051;-79
2022/02/13 03:28:21;;;;;;;28.55;15.13;;;;;;;3.03;100.00;94207.81;5070918;28;20050;-79
2022/02/13 03:30:48;;;;;;;26.30;13.52;;;;;;;2.97;100.00;94200.75;5070685;28;20052;-79
2022/02/13 03:33:16;;;;;;;25.95;13.82;;;;;;;3.00;99.34;94201.28;5070611;28;20537;-79
2022/02/13 03:35:43;;;;;;;27.63;12.95;;;;;;;3.01;99.56;94205.41;5070877;28;20040;-79
2022/02/13 03:38:11;;;;;;;29.33;13.45;;;;;;;2.75;100.00;94167.16;5070948;28;20040;-78
2022/02/13 03:40:38;;;;;;;30.17;14.63;;;;;;;3.01;100.00;94202.88;5070748;28;20037;-78
2022/02/13 03:43:06;;;;;;;25.52;13.90;;;;;;;3.05;100.00;94213.56;5070554;28;20488;-79
2022/02/13 03:45:33;;;;;;;34.85;14.60;;;;;;;2.98;100.00;94204.91;5070624;28;20119;-79
2022/02/13 03:48:00;;;;;;;33.38;17.10;;;;;;;2.91;100.00;94204.63;5070470;28;20074;-78
2022/02/13 03:50:28;;;;;;;28.02;14.18;;;;;;;2.91;100.00;94209.72;5067577;28;20045;-79
2022/02/13 03:52:55;;;;;;;33.13;17.73;;;;;;;2.90;100.00;94214.00;5062317;28;20044;-79
2022/02/13 03:55:22;;;;;;;32.90;19.58;;;;;;;2.69;100.00;94201.50;5069694;28;20053;-79
2022/02/13 03:57:48;;;;;;;31.13;17.75;;;;;;;2.57;100.00;94218.59;5070357;28;20645;-79
2022/02/13 04:00:16;;;;;;;30.58;16.45;;;;;;;2.41;100.00;94209.00;5070391;28;20426;-79
2022/02/13 04:02:42;;;;;;;29.25;17.90;;;;;;;2.43;100.00;94212.19;5070396;28;20055;-81
2022/02/13 04:05:10;;;;;;;46.60;23.90;;;;;;;2.38;100.00;94206.72;5070243;28;20044;-81
2022/02/13 04:07:40;;;;;;;29.33;17.45;;;;;;;2.10;100.00;94202.34;5070784;28;20458;-82
2022/02/13 04:10:08;;;;;;;28.38;17.73;;;;;;;2.11;100.00;94203.13;5055285;28;20049;-82
2022/02/13 04:12:35;;;;;;;28.58;17.17;;;;;;;2.11;100.00;94200.59;5049442;28;20045;-81
2022/02/13 04:15:04;;;;;;;26.30;16.00;;;;;;;2.05;100.00;94201.13;5051406;28;20075;-81
2022/02/13 04:17:31;;;;;;;22.95;15.57;;;;;;;1.95;100.00;94206.19;5070189;28;20131;-81
2022/02/13 04:19:58;;;;;;;29.05;15.57;;;;;;;1.95;100.00;94194.31;5069796;28;20478;-81
2022/02/13 04:22:24;;;;;;;23.33;14.07;;;;;;;1.78;100.00;94205.91;5069714;28;20052;-81
2022/02/13 04:24:53;;;;;;;24.05;15.73;;;;;;;1.71;100.00;94190.41;5070331;28;20040;-81
2022/02/13 04:27:20;;;;;;;27.10;16.48;;;;;;;1.85;100.00;94213.78;5070716;28;20048;-82
2022/02/13 04:29:47;;;;;;;28.23;15.73;;;;;;;1.80;100.00;94213.38;5069825;28;20052;-81
2022/02/13 04:32:14;;;;;;;24.85;15.27;;;;;;;1.78;100.00;94208.44;5070333;28;20476;-81
2022/02/13 04:34:42;;;;;;;22.80;16.33;;;;;;;1.73;100.00;94196.13;5070587;28;20059;-81
2022/02/13 04:37:09;;;;;;;27.45;16.08;;;;;;;1.64;100.00;94212.13;5069655;28;20036;-81
2022/02/13 04:39:36;;;;;;;28.33;16.63;;;;;;;1.67;100.00;94211.84;5069973;28;20090;-81
2022/02/13 04:42:05;;;;;;;29.73;17.85;;;;;;;1.82;100.00;94212.31;5069515;28;20040;-81
2022/02/13 04:44:32;;;;;;;31.75;19.30;;;;;;;1.96;100.00;94210.31;5069597;28;20050;-81
2022/02/13 04:46:58;;;;;;;32.50;18.85;;;;;;;2.05;100.00;94214.59;5069536;28;20044;-79
2022/02/13 04:49:25;;;;;;;28.02;17.10;;;;;;;2.16;100.00;94202.75;5048937;28;20542;-79
2022/02/13 04:51:52;;;;;;;33.38;20.40;;;;;;;2.32;100.00;94210.59;5047912;28;20052;-79
2022/02/13 04:54:19;;;;;;;26.48;17.05;;;;;;;2.20;100.00;94204.88;5050954;28;20041;-78
2022/02/13 04:56:46;;;;;;;32.13;18.70;;;;;;;2.06;100.00;94211.13;5069281;28;20480;-78
2022/02/13 04:59:14;;;;;;;36.03;18.48;;;;;;;2.10;100.00;94206.59;5069269;28;20110;-79
2022/02/13 05:01:41;;;;;;;29.63;17.05;;;;;;;2.08;100.00;94213.53;5069519;28;20052;-79
2022/02/13 05:04:08;;;;;;;27.20;16.70;;;;;;;1.71;100.00;94220.03;5069193;28;20044;-79
2022/02/13 05:06:35;;;;;;;27.92;15.32;;;;;;;1.57;100.00;94218.66;5066012;28;20052;-78
2022/02/13 05:09:01;;;;;;;24.00;16.15;;;;;;;1.59;100.00;94215.03;5060628;28;20177;-78
2022/02/13 05:11:28;;;;;;;19.60;14.13;;;;;;;1.38;100.00;94212.56;5054809;28;20048;-79
2022/02/13 05:13:55;;;;;;;19.08;14.90;;;;;;;1.40;100.00;94210.75;5049148;28;20074;-79
2022/02/13 05:16:23;;;;;;;21.08;15.93;;;;;;;1.58;100.00;94220.25;5068806;28;20045;-79
2022/02/13 05:18:50;;;;;;;19.02;14.95;;;;;;;1.50;100.00;94220.06;5069594;28;20055;-79
2022/02/13 05:21:17;;;;;;;19.20;14.63;;;;;;;1.59;100.00;94221.84;5069567;28;20041;-78
2022/02/13 05:23:44;;;;;;;19.15;13.00;;;;;;;1.49;100.00;94210.88;5069517;28;20039;-78
2022/02/13 05:26:12;;;;;;;20.48;13.05;;;;;;;1.33;100.00;94223.09;5073656;28;20044;-79
2022/02/13 05:28:39;;;;;;;18.08;13.35;;;;;;;1.40;100.00;94215.81;5073704;28;20131;-79
2022/02/13 05:31:06;;;;;;;18.55;12.75;;;;;;;1.49;100.00;94216.75;5073154;28;20044;-78
2022/02/13 05:33:34;;;;;;;15.60;11.35;;;;;;;1.62;100.00;94223.31;5073176;28;20503;-79
2022/02/13 05:36:01;;;;;;;16.67;11.60;;;;;;;1.64;100.00;94219.72;5073085;28;20044;-79
2022/02/13 05:38:27;;;;;;;16.58;11.57;;;;;;;1.64;100.00;94208.78;5073089;28;20094;-78
2022/02/13 05:40:54;;;;;;;16.30;10.95;;;;;;;1.83;100.00;94229.09;5062530;28;20403;-78
2022/02/13 05:43:21;;;;;;;13.90;10.25;;;;;;;1.73;100.00;94231.59;5053041;28;20098;-80
2022/02/13 05:45:48;;;;;;;16.58;11.13;;;;;;;1.66;100.00;94207.72;5061844;28;20041;-79
2022/02/13 05:48:15;;;;;;;14.52;10.73;;;;;;;1.80;100.00;94229.34;5061549;28;20087;-79
2022/02/13 05:50:43;;;;;;;18.27;12.38;;;;;;;1.72;100.00;94235.06;5052676;28;20049;-78
2022/02/13 05:53:10;;;;;;;15.40;11.15;;;;;;;1.45;100.00;94228.84;5053127;28;20431;-78
2022/02/13 05:55:37;;;;;;;16.40;11.50;;;;;;;1.36;100.00;94231.34;5053049;28;20518;-78
2022/02/13 05:58:04;;;;;;;20.02;11.27;;;;;;;1.15;100.00;94234.75;5055402;28;20049;-78
2022/02/13 06:00:32;;;;;;;16.92;10.60;;;;;;;1.10;100.00;94242.69;5073013;28;20365;-78
2022/02/13 06:02:59;;;;;;;22.70;12.10;;;;;;;0.92;100.00;94227.28;5072942;28;21161;-78
2022/02/13 06:05:26;;;;;;;27.08;12.27;;;;;;;0.92;100.00;94234.88;5072570;28;20051;-79
2022/02/13 06:07:54;;;;;;;22.40;13.57;;;;;;;1.11;100.00;94234.19;5072992;28;20430;-79
2022/02/13 06:10:21;;;;;;;30.67;17.10;;;;;;;1.03;100.00;94241.59;5071985;28;20052;-79
2022/02/13 06:12:49;;;;;;;31.23;17.10;;;;;;;1.01;100.00;94235.84;5072956;28;20044;-79
2022/02/13 06:15:16;;;;;;;31.92;18.52;;;;;;;1.13;100.00;94242.47;5065109;28;20044;-78
2022/02/13 06:17:43;;;;;;;34.17;18.60;;;;;;;1.21;100.00;94246.91;5072618;28;20392;-79
2022/02/13 06:20:11;;;;;;;38.40;19.77;;;;;;;1.23;100.00;94229.84;5072500;28;20040;-79
2022/02/13 06:22:39;;;;;;;35.80;17.13;;;;;;;1.35;100.00;94244.94;5072498;28;20044;-78
2022/02/13 06:25:09;;;;;;;29.50;15.82;;;;;;;1.42;100.00;94241.78;5072127;28;20044;-79
2022/02/13 06:27:35;;;;;;;33.10;15.60;;;;;;;1.23;100.00;94244.22;5072005;28;20090;-78
2022/02/13 06:30:02;;;;;;;36.88;17.92;;;;;;;1.30;100.00;94241.06;5072190;28;20045;-79
2022/02/13 06:32:29;;;;;;;51.13;28.05;;;;;;;1.39;100.00;94244.56;5072366;28;20127;-79
2022/02/13 06:34:56;;;;;;;49.17;30.88;;;;;;;1.47;100.00;94241.38;5071759;28;20056;-79
2022/02/13 06:37:23;;;;;;;42.10;24.35;;;;;;;1.52;100.00;94246.88;5071053;28;20430;-79
2022/02/13 06:39:49;;;;;;;39.42;21.15;;;;;;;1.51;100.00;94236.88;5072257;28;20044;-79
2022/02/13 06:42:18;;;;;;;27.15;15.95;;;;;;;1.26;100.00;94231.31;5071943;28;20051;-79
2022/02/13 06:44:45;;;;;;;33.15;18.05;;;;;;;1.27;100.00;94236.25;5071989;28;20369;-79
2022/02/13 06:47:12;;;;;;;29.50;18.48;;;;;;;1.44;100.00;94254.31;5052191;28;20044;-79
2022/02/13 06:49:39;;;;;;;26.35;15.57;;;;;;;1.41;100.00;94259.63;5051786;28;20041;-79
2022/02/13 06:52:06;;;;;;;28.48;16.17;;;;;;;1.43;100.00;94260.31;5051915;28;20045;-78
2022/02/13 06:54:33;;;;;;;30.02;15.90;;;;;;;1.44;100.00;94257.63;5051922;28;20056;-78
2022/02/13 06:56:59;;;;;;;24.10;12.60;;;;;;;1.24;100.00;94223.84;5052004;28;20068;-79
2022/02/13 06:59:28;;;;;;;21.60;13.93;;;;;;;1.51;100.00;94249.53;5051927;28;20045;-79
2022/02/13 07:01:54;;;;;;;23.08;14.80;;;;;;;1.59;100.00;94253.03;5051465;28;20412;-79
2022/02/13 07:04:21;;;;;;;23.27;14.07;;;;;;;1.50;100.00;94253.00;5051701;28;20049;-81
2022/02/13 07:06:48;;;;;;;19.08;12.68;;;;;;;1.60;100.00;94258.91;5051399;28;20041;-81
2022/02/13 07:09:15;;;;;;;22.42;14.25;;;;;;;1.65;100.00;94255.97;5062882;28;20037;-82
2022/02/13 07:11:42;;;;;;;18.67;12.18;;;;;;;1.41;100.00;94254.56;5059316;28;20048;-81
2022/02/13 07:14:09;;;;;;;24.73;15.35;;;;;;;1.35;100.00;94250.00;5054200;28;20040;-80
2022/02/13 07:16:37;;;;;;;32.97;17.85;;;;;;;1.36;100.00;94256.66;5070945;28;20045;-81
2022/02/13 07:19:04;;;;;;;25.08;16.90;;;;;;;1.26;100.00;94247.31;5071088;28;20541;-81
2022/02/13 07:21:30;;;;;;;28.83;18.13;;;;;;;1.24;100.00;94248.38;5071212;28;20059;-81
2022/02/13 07:23:57;;;;;;;28.65;18.25;;;;;;;1.26;100.00;94251.56;5071415;28;20045;-80
2022/02/13 07:26:24;;;;;;;25.40;17.27;;;;;;;1.19;100.00;94236.88;5071253;28;20040;-81
2022/02/13 07:29:00;;;;;;;24.38;16.40;;;;;;;1.44;100.00;94249.25;5071113;28;20090;-81
2022/02/13 07:31:27;;;;;;;27.00;16.50;;;;;;;1.64;100.00;94247.59;5071193;28;20045;-81
2022/02/13 07:33:55;;;;;;;25.70;16.45;;;;;;;1.65;100.00;94251.72;5071020;28;20047;-80
2022/02/13 07:36:22;;;;;;;22.48;15.52;;;;;;;1.80;100.00;94256.44;5070588;28;20048;-81
2022/02/13 07:38:49;;;;;;;23.40;13.63;;;;;;;1.79;100.00;94253.09;5070786;28;20041;-81
2022/02/13 07:41:16;;;;;;;20.38;12.82;;;;;;;1.93;100.00;94257.00;5071124;28;20045;-81
2022/02/13 07:43:43;;;;;;;19.50;13.27;;;;;;;1.94;100.00;94252.72;5070995;28;20048;-81
2022/02/13 07:46:09;;;;;;;19.30;12.63;;;;;;;1.92;100.00;94247.78;5059057;28;20045;-81
2022/02/13 07:48:36;;;;;;;13.35;9.50;;;;;;;1.97;100.00;94238.06;5050406;28;20053;-81
2022/02/13 07:51:04;;;;;;;18.60;12.15;;;;;;;1.95;100.00;94247.50;5061445;28;20052;-80
2022/02/13 07:53:31;;;;;;;16.85;12.73;;;;;;;1.97;100.00;94248.19;5068526;28;20082;-80
2022/02/13 07:55:58;;;;;;;18.40;12.93;;;;;;;1.97;100.00;94248.19;5070747;28;20048;-79
2022/02/13 07:58:30;;;;;;;21.77;13.68;;;;;;;2.04;100.00;94245.13;5070489;28;20044;-80
2022/02/13 08:00:57;;;;;;;19.33;13.32;;;;;;;1.90;100.00;94243.78;5056106;28;20128;-77
2022/02/13 08:03:23;;;;;;;17.85;12.10;;;;;;;1.94;100.00;94243.38;5050057;28;20052;-80
2022/02/13 08:05:50;;;;;;;21.77;14.63;;;;;;;2.11;100.00;94231.81;5050276;28;20037;-80
2022/02/13 08:08:18;;;;;;;23.63;16.27;;;;;;;2.25;100.00;94214.59;5050492;28;20049;-80
2022/02/13 08:10:46;;;;;;;62.55;35.10;;;;;;;2.48;100.00;94229.53;5050224;28;20056;-81
2022/02/13 08:13:13;;;;;;;18.67;12.55;;;;;;;2.10;100.00;94187.13;5050385;28;20040;-81
2022/02/13 08:15:40;;;;;;;18.25;11.45;;;;;;;2.49;100.00;94236.22;5050582;28;20124;-81
2022/02/13 08:18:08;;;;;;;19.08;12.70;;;;;;;2.34;100.00;94185.91;5050385;28;20045;-81
2022/02/13 08:20:35;;;;;;;18.73;13.30;;;;;;;2.64;100.00;94227.25;5049992;28;20045;-81
2022/02/13 08:23:02;;;;;;;17.33;10.98;;;;;;;2.46;100.00;94237.28;5050124;28;20076;-80
2022/02/13 08:25:31;;;;;;;21.08;13.77;;;;;;;2.48;100.00;94227.00;5049692;28;20481;-81
2022/02/13 08:27:58;;;;;;;19.27;13.43;;;;;;;2.47;100.00;94215.25;5049921;28;20274;-81
2022/02/13 08:30:25;;;;;;;18.70;12.93;;;;;;;2.38;100.00;94237.16;5049910;28;20052;-81
2022/02/13 08:32:52;;;;;;;21.05;15.52;;;;;;;2.56;100.00;94239.84;5049856;28;20068;-82
2022/02/13 08:35:21;;;;;;;22.85;15.70;;;;;;;2.25;100.00;94204.47;5050020;28;20040;-81
2022/02/13 08:37:48;;;;;;;26.27;16.90;;;;;;;2.43;100.00;94229.94;5049923;28;20037;-79
2022/02/13 08:40:15;;;;;;;26.52;18.13;;;;;;;2.59;100.00;94239.53;5050058;28;20049;-79
2022/02/13 08:42:43;;;;;;;21.75;14.50;;;;;;;2.60;100.00;94236.06;5049479;28;20517;-79
2022/02/13 08:45:10;;;;;;;22.20;15.10;;;;;;;2.69;100.00;94234.47;5053323;28;20040;-78
2022/02/13 08:47:37;;;;;;;26.42;16.77;;;;;;;2.82;100.00;94231.63;5065952;28;20044;-78
2022/02/13 08:50:05;;;;;;;20.88;13.50;;;;;;;2.74;100.00;94237.38;5067948;28;20067;-78
2022/02/13 08:52:32;;;;;;;24.48;16.52;;;;;;;2.61;100.00;94239.41;5069634;28;20062;-79
2022/02/13 08:54:58;;;;;;;28.88;18.63;;;;;;;2.32;100.00;94222.47;5069733;28;20066;-78
2022/02/13 08:57:25;;;;;;;29.05;19.30;;;;;;;2.52;100.00;94234.22;5069343;28;20051;-80
2022/02/13 08:59:53;;;;;;;28.98;17.65;;;;;;;2.40;100.00;94222.59;5069181;28;20044;-78
2022/02/13 09:02:20;;;;;;;111.20;55.65;;;;;;;2.37;100.00;94222.88;5069428;28;20045;-79
2022/02/13 09:04:47;;;;;;;23.77;16.15;;;;;;;2.20;100.00;94226.88;5069807;28;20110;-79
2022/02/13 09:07:14;;;;;;;23.52;14.77;;;;;;;2.11;100.00;94234.34;5069580;28;20049;-79
2022/02/13 09:09:43;;;;;;;27.10;16.75;;;;;;;2.16;100.00;94230.63;5069162;28;20049;-79
2022/02/13 09:12:10;;;;;;;28.30;19.48;;;;;;;2.27;100.00;94233.03;5069199;28;20492;-79
2022/02/13 09:14:37;;;;;;;28.60;19.08;;;;;;;2.38;100.00;94227.00;5062521;28;20087;-79
2022/02/13 09:17:06;;;;;;;24.08;16.67;;;;;;;2.18;100.00;94198.31;5048902;28;20048;-79
2022/02/13 09:19:33;;;;;;;25.23;17.30;;;;;;;2.34;100.00;94240.88;5049025;28;20122;-80
2022/02/13 09:22:00;;;;;;;26.38;17.15;;;;;;;2.44;100.00;94223.16;5049046;28;20044;-79
2022/02/13 09:24:26;;;;;;;25.13;17.45;;;;;;;2.65;100.00;94230.59;5049140;28;20045;-79
2022/02/13 09:26:53;;;;;;;21.45;14.90;;;;;;;2.64;100.00;94201.09;5049408;28;20041;-80
2022/02/13 09:29:20;;;;;;;23.77;15.40;;;;;;;2.81;100.00;94222.44;5049234;28;20045;-80
2022/02/13 09:31:47;;;;;;;18.85;13.15;;;;;;;2.64;100.00;94227.25;5049120;28;20051;-82
2022/02/13 09:34:18;;;;;;;17.98;12.85;;;;;;;2.75;100.00;94236.47;5049229;28;20045;-82
2022/02/13 09:36:47;;;;;;;24.90;16.13;;;;;;;2.87;100.00;94226.16;5049081;28;20069;-82
2022/02/13 09:39:14;;;;;;;26.27;16.58;;;;;;;2.74;100.00;94193.47;5049928;28;20056;-82
2022/02/13 09:41:41;;;;;;;21.83;14.73;;;;;;;2.72;100.00;94167.44;5049324;28;20078;-82
2022/02/13 09:44:09;;;;;;;21.45;13.93;;;;;;;3.11;100.00;94207.13;5049106;28;20435;-82
2022/02/13 09:46:36;;;;;;;23.98;15.48;;;;;;;2.44;100.00;94170.69;5064126;28;20044;-82
2022/02/13 09:49:05;;;;;;;25.85;15.02;;;;;;;2.67;100.00;94216.03;5068597;28;20136;-82
2022/02/13 09:51:34;;;;;;;19.33;13.38;;;;;;;2.39;100.00;94190.56;5069102;28;20044;-83
2022/02/13 09:54:01;;;;;;;21.98;15.43;;;;;;;2.63;100.00;94217.25;5068719;28;20135;-82
2022/02/13 09:56:28;;;;;;;26.20;16.77;;;;;;;2.52;100.00;94180.97;5069236;28;20395;-83
2022/02/13 09:58:55;;;;;;;21.15;14.30;;;;;;;2.84;100.00;94198.53;5068704;28;20044;-83
2022/02/13 10:01:35;;;;;;;24.15;15.52;;;;;;;3.04;100.00;94206.88;5068920;28;20045;-82
2022/02/13 10:04:03;;;;;;;21.88;13.77;;;;;;;3.20;100.00;94202.00;5068803;28;20132;-83
2022/02/13 10:06:30;;;;;;;19.10;13.52;;;;;;;3.43;100.00;94205.94;5069028;28;20396;-83
2022/02/13 10:08:59;;;;;;;22.05;13.18;;;;;;;3.61;100.00;94203.44;5068967;28;20044;-83
2022/02/13 10:11:28;;;;;;;21.58;13.50;;;;;;;3.46;100.00;94191.22;5071669;28;20052;-83
2022/02/13 10:13:57;;;;;;;15.20;11.02;;;;;;;3.65;100.00;94193.81;5071039;28;20532;-83
2022/02/13 10:16:26;;;;;;;20.65;14.20;;;;;;;3.69;100.00;94154.44;5052137;28;20511;-83
2022/02/13 10:18:57;;;;;;;19.02;13.75;;;;;;;4.16;100.00;94186.50;5052504;28;20045;-83
2022/02/13 10:21:41;;;;;;;32.63;18.98;;;;;;;4.31;99.06;94186.81;5052145;28;20049;-83
2022/02/13 10:24:20;;;;;;;20.83;13.65;;;;;;;4.16;98.81;94180.63;5052288;28;20072;-83
2022/02/13 10:26:49;;;;;;;19.17;13.20;;;;;;;4.33;99.27;94166.31;5052651;28;20049;-82
2022/02/13 10:29:16;;;;;;;18.55;13.57;;;;;;;4.65;97.99;94177.66;5052318;28;20095;-82
2022/02/13 10:31:44;;;;;;;25.58;16.20;;;;;;;4.43;95.80;94163.69;5051829;28;20053;-83
2022/02/13 10:34:14;;;;;;;27.80;15.15;;;;;;;4.64;95.59;94168.44;5052332;28;20110;-82
2022/02/13 10:36:43;;;;;;;20.10;13.90;;;;;;;4.89;96.16;94168.59;5052057;28;20552;-82
2022/02/13 10:39:19;;;;;;;20.90;11.35;;;;;;;4.91;93.58;94159.06;5052146;28;20045;-82
2022/02/13 10:41:45;;;;;;;;;;;;;;;4.34;95.76;94158.53;5052080;28;20041;-82
2022/02/13 10:44:13;;;;;;;24.27;15.07;;;;;;;4.67;96.47;94132.50;5052135;28;20027;-81
2022/02/13 10:46:43;;;;;;;22.35;12.40;;;;;;;5.08;98.02;94114.91;5067293;28;20048;-79
2022/02/13 10:49:13;;;;;;;26.92;12.43;;;;;;;5.35;92.33;94125.81;5071638;28;20858;-79
2022/02/13 10:51:40;;;;;;;20.58;13.38;;;;;;;5.59;91.63;94123.50;5071663;28;20046;-80
2022/02/13 10:54:07;;;;;;;20.58;12.93;;;;;;;5.47;88.63;94139.06;5071626;28;20491;-79
2022/02/13 10:56:37;;;;;;;17.38;12.20;;;;;;;5.37;90.09;94127.41;5071588;28;20090;-80
2022/02/13 10:59:04;;;;;;;18.80;12.27;;;;;;;5.37;90.04;94128.19;5071347;28;20583;-80
2022/02/13 11:01:32;;;;;;;22.58;15.63;;;;;;;5.64;92.39;94123.81;5071630;28;20486;-79
2022/02/13 11:04:03;;;;;;;21.20;13.10;;;;;;;5.72;91.34;94102.66;5071364;28;20044;-80
2022/02/13 11:06:32;;;;;;;16.27;11.43;;;;;;;5.67;88.50;94071.72;5071878;28;20051;-80
2022/02/13 11:09:05;;;;;;;15.60;11.43;;;;;;;6.18;89.90;94109.88;5071850;28;20044;-80
2022/02/13 11:11:33;;;;;;;22.00;15.18;;;;;;;6.41;86.96;94107.50;5071750;28;20052;-80
2022/02/13 11:14:01;;;;;;;18.20;12.27;;;;;;;6.55;87.08;94116.25;5069254;28;20055;-80
2022/02/13 11:16:38;;;;;;;19.73;13.10;;;;;;;6.50;84.33;94107.47;5051147;28;20052;-80
2022/02/13 11:19:09;;;;;;;19.15;11.77;;;;;;;6.63;85.73;94092.44;5050905;28;20045;-80
2022/02/13 11:21:37;;;;;;;15.70;10.60;;;;;;;6.81;82.91;94102.44;5050754;28;20064;-80
2022/02/13 11:24:05;;;;;;;24.33;13.52;;;;;;;6.29;85.81;94098.53;5050739;28;20433;-80